PWSweather.com
Personal Weather Stations
Station Observations
KMNZUMBR2
Covered Bridge Park, Zumbrota, MN 55992

Covered Bridge ParkZumbrota, MN 55992

Lat: 44.302051, Lon: -92.674974

Elevation: 928

Station Type: Davis Vantage Pro 2 Plus

Latest ConditionsUpdated 6:00:01 PM CDT Wednesday, Oct 16, 2019
Currently Today's Max Today's Min Today's Average
Temperature 44.8°F7.1°C 46.7°F8.2°C 41.5°F5.3°C 43.6°F6.4°C
Dew Point 35.6°F2.0°C 40.2°F4.6°C 34.2°F1.2°C 37.7°F3.2°C
Winds Calm Calm 9.2 mph -14.8 kmh - - 4.0 mph 6.4 kmh
Wind Gusts -- 15.0 mph24.1 kmh - -
Humidity 70% 93% 65% 80%
Pressure 30.05 in1017.6 mb 30.10 in1019.3 mb 30.00 in1015.9 mb -
Hour Temp Dew Point Humidity Winds Wind Gusts Pressure Precip Precip Rate Daily Precip Total
06:00 PM 44.8°F7.1°C 35.6°F2.0°C 70% Calm Calm -- 30.05 in1017.6 mb - 0.00 in0.0 mm 0.00 in0.0 mm
05:50 PM 45.0°F7.2°C 35.8°F2.1°C 70% Calm Calm -- 30.05 in1017.6 mb - 0.00 in0.0 mm 0.00 in0.0 mm
05:40 PM 45.2°F7.3°C 36.0°F2.2°C 70% Calm Calm -- 30.05 in1017.6 mb - 0.00 in0.0 mm 0.00 in0.0 mm
05:30 PM 45.4°F7.4°C 36.2°F2.3°C 70% Calm Calm 6.9 mph11.1 kmh 30.05 in1017.6 mb - 0.00 in0.0 mm 0.00 in0.0 mm
05:20 PM 45.5°F7.5°C 36.3°F2.4°C 70% Calm Calm -- 30.05 in1017.6 mb - 0.00 in0.0 mm 0.00 in0.0 mm
05:10 PM 45.5°F7.5°C 36.3°F2.4°C 70% Calm Calm -- 30.05 in1017.6 mb - 0.00 in0.0 mm 0.00 in0.0 mm
05:00 PM 45.4°F7.4°C 36.2°F2.3°C 70% Calm Calm -- 30.05 in1017.6 mb - 0.00 in0.0 mm 0.00 in0.0 mm
04:50 PM 45.4°F7.4°C 36.2°F2.3°C 70% Calm Calm -- 30.06 in1017.9 mb - 0.00 in0.0 mm 0.00 in0.0 mm
04:40 PM 45.3°F7.4°C 36.1°F2.3°C 70% 3.5 mph NW5.6 kmh NW 9.2 mph14.8 kmh 30.06 in1017.9 mb - 0.00 in0.0 mm 0.00 in0.0 mm
04:30 PM 45.4°F7.4°C 36.2°F2.3°C 70% Calm Calm -- 30.07 in1018.3 mb - 0.00 in0.0 mm 0.00 in0.0 mm
04:20 PM 45.5°F7.5°C 36.3°F2.4°C 70% 1.2 mph NW1.9 kmh NW 11.5 mph18.5 kmh 30.07 in1018.3 mb - 0.00 in0.0 mm 0.00 in0.0 mm
04:10 PM 45.7°F7.6°C 36.5°F2.5°C 70% 4.6 mph NW7.4 kmh NW 8.1 mph13.0 kmh 30.06 in1017.9 mb - 0.00 in0.0 mm 0.00 in0.0 mm
04:00 PM 45.9°F7.7°C 38.4°F3.6°C 75% 3.5 mph W5.6 kmh W 6.9 mph11.1 kmh 30.06 in1017.9 mb - 0.00 in0.0 mm 0.00 in0.0 mm
03:50 PM 46.3°F7.9°C 38.8°F3.8°C 75% 1.2 mph NW1.9 kmh NW -- 30.06 in1017.9 mb - 0.00 in0.0 mm 0.00 in0.0 mm
03:40 PM 46.6°F8.1°C 39.1°F3.9°C 75% 1.2 mph WNW1.9 kmh WNW 9.2 mph14.8 kmh 30.06 in1017.9 mb - 0.00 in0.0 mm 0.00 in0.0 mm
03:30 PM 46.4°F8.0°C 38.9°F3.8°C 75% 3.5 mph NW5.6 kmh NW 4.6 mph7.4 kmh 30.06 in1017.9 mb - 0.00 in0.0 mm 0.00 in0.0 mm
03:20 PM 46.4°F8.0°C 38.9°F3.8°C 75% 3.5 mph NW5.6 kmh NW 5.8 mph9.3 kmh 30.07 in1018.3 mb - 0.00 in0.0 mm 0.00 in0.0 mm
03:10 PM 46.7°F8.2°C 39.2°F4.0°C 75% 1.2 mph NW1.9 kmh NW 11.5 mph18.5 kmh 30.07 in1018.3 mb - 0.00 in0.0 mm 0.00 in0.0 mm
03:00 PM 46.7°F8.2°C 35.6°F2.0°C 65% Calm Calm -- 30.07 in1018.3 mb - 0.00 in0.0 mm 0.00 in0.0 mm
02:50 PM 46.4°F8.0°C 35.3°F1.8°C 65% 2.3 mph NNW3.7 kmh NNW 8.1 mph13.0 kmh 30.07 in1018.3 mb - 0.00 in0.0 mm 0.00 in0.0 mm
02:40 PM 46.6°F8.1°C 35.5°F1.9°C 65% Calm Calm -- 30.07 in1018.3 mb - 0.00 in0.0 mm 0.00 in0.0 mm
02:30 PM 46.2°F7.9°C 35.1°F1.7°C 65% 3.5 mph NW5.6 kmh NW 8.1 mph13.0 kmh 30.07 in1018.3 mb - 0.00 in0.0 mm 0.00 in0.0 mm
02:20 PM 46.0°F7.8°C 34.9°F1.6°C 65% 2.3 mph NW3.7 kmh NW 4.6 mph7.4 kmh 30.07 in1018.3 mb - 0.00 in0.0 mm 0.00 in0.0 mm
02:10 PM 45.6°F7.6°C 34.5°F1.4°C 65% 1.2 mph WNW1.9 kmh WNW -- 30.08 in1018.6 mb - 0.00 in0.0 mm 0.00 in0.0 mm
02:00 PM 45.4°F7.4°C 37.9°F3.3°C 75% 2.3 mph NW3.7 kmh NW 5.8 mph9.3 kmh 30.08 in1018.6 mb - 0.00 in0.0 mm 0.00 in0.0 mm
01:50 PM 45.7°F7.6°C 38.2°F3.4°C 75% 5.8 mph NW9.3 kmh NW 9.2 mph14.8 kmh 30.08 in1018.6 mb - 0.00 in0.0 mm 0.00 in0.0 mm
01:40 PM 46.1°F7.8°C 38.6°F3.7°C 75% 4.6 mph NW7.4 kmh NW 4.6 mph7.4 kmh 30.08 in1018.6 mb - 0.00 in0.0 mm 0.00 in0.0 mm
01:30 PM 45.9°F7.7°C 38.4°F3.6°C 75% 4.6 mph NW7.4 kmh NW 11.5 mph18.5 kmh 30.08 in1018.6 mb - 0.00 in0.0 mm 0.00 in0.0 mm
01:20 PM 45.1°F7.3°C 37.6°F3.1°C 75% Calm Calm 3.5 mph5.6 kmh 30.09 in1019.0 mb - 0.00 in0.0 mm 0.00 in0.0 mm
01:10 PM 45.1°F7.3°C 37.7°F3.2°C 75% 2.3 mph W3.7 kmh W 4.6 mph7.4 kmh 30.09 in1019.0 mb - 0.00 in0.0 mm 0.00 in0.0 mm
01:00 PM 45.4°F7.4°C 36.2°F2.3°C 70% 2.3 mph W3.7 kmh W 8.1 mph13.0 kmh 30.09 in1019.0 mb - 0.00 in0.0 mm 0.00 in0.0 mm
12:50 PM 45.3°F7.4°C 36.1°F2.3°C 70% Calm Calm -- 30.10 in1019.3 mb - 0.00 in0.0 mm 0.00 in0.0 mm
12:40 PM 45.6°F7.6°C 36.4°F2.4°C 70% Calm Calm -- 30.10 in1019.3 mb - 0.00 in0.0 mm 0.00 in0.0 mm
12:30 PM 45.8°F7.7°C 36.6°F2.6°C 70% 4.6 mph NW7.4 kmh NW 6.9 mph11.1 kmh 30.10 in1019.3 mb - 0.00 in0.0 mm 0.00 in0.0 mm
12:20 PM 45.5°F7.5°C 36.3°F2.4°C 70% 6.9 mph N11.1 kmh N 10.4 mph16.7 kmh 30.10 in1019.3 mb - 0.00 in0.0 mm 0.00 in0.0 mm
12:10 PM 45.2°F7.3°C 36.0°F2.2°C 70% 4.6 mph NNW7.4 kmh NNW 10.4 mph16.7 kmh 30.10 in1019.3 mb - 0.00 in0.0 mm 0.00 in0.0 mm
12:00 PM 45.1°F7.3°C 37.6°F3.1°C 75% 3.5 mph N5.6 kmh N 4.6 mph7.4 kmh 30.10 in1019.3 mb - 0.00 in0.0 mm 0.00 in0.0 mm
11:50 AM 44.6°F7.0°C 37.2°F2.9°C 75% 3.5 mph NW5.6 kmh NW 3.5 mph5.6 kmh 30.10 in1019.3 mb - 0.00 in0.0 mm 0.00 in0.0 mm
11:40 AM 44.7°F7.1°C 37.3°F2.9°C 75% 4.6 mph NW7.4 kmh NW 11.5 mph18.5 kmh 30.10 in1019.3 mb - 0.00 in0.0 mm 0.00 in0.0 mm
11:30 AM 44.6°F7.0°C 37.2°F2.9°C 75% 8.1 mph NW13.0 kmh NW 10.4 mph16.7 kmh 30.10 in1019.3 mb - 0.00 in0.0 mm 0.00 in0.0 mm
11:20 AM 44.6°F7.0°C 37.2°F2.9°C 75% 8.1 mph NW13.0 kmh NW 11.5 mph18.5 kmh 30.10 in1019.3 mb - 0.00 in0.0 mm 0.00 in0.0 mm
11:10 AM 44.8°F7.1°C 37.4°F3.0°C 75% 2.3 mph NNW3.7 kmh NNW 4.6 mph7.4 kmh 30.10 in1019.3 mb - 0.00 in0.0 mm 0.00 in0.0 mm
11:00 AM 44.7°F7.1°C 38.9°F3.8°C 80% 8.1 mph NW13.0 kmh NW 10.4 mph16.7 kmh 30.10 in1019.3 mb - 0.00 in0.0 mm 0.00 in0.0 mm
10:50 AM 44.3°F6.8°C 38.6°F3.7°C 80% 5.8 mph NW9.3 kmh NW 9.2 mph14.8 kmh 30.10 in1019.3 mb - 0.00 in0.0 mm 0.00 in0.0 mm
10:40 AM 44.1°F6.7°C 38.3°F3.5°C 80% 3.5 mph NW5.6 kmh NW 11.5 mph18.5 kmh 30.10 in1019.3 mb - 0.00 in0.0 mm 0.00 in0.0 mm
10:30 AM 44.1°F6.7°C 38.3°F3.5°C 80% 3.5 mph NW5.6 kmh NW 4.6 mph7.4 kmh 30.10 in1019.3 mb - 0.00 in0.0 mm 0.00 in0.0 mm
10:20 AM 44.1°F6.7°C 38.3°F3.5°C 80% 4.6 mph NW7.4 kmh NW 12.7 mph20.4 kmh 30.10 in1019.3 mb - 0.00 in0.0 mm 0.00 in0.0 mm
10:10 AM 44.2°F6.8°C 38.4°F3.6°C 80% 8.1 mph NW13.0 kmh NW 9.2 mph14.8 kmh 30.10 in1019.3 mb - 0.00 in0.0 mm 0.00 in0.0 mm
10:00 AM 44.1°F6.7°C 40.2°F4.6°C 86% 6.9 mph WNW11.1 kmh WNW 10.4 mph16.7 kmh 30.09 in1019.0 mb - 0.00 in0.0 mm 0.00 in0.0 mm
09:50 AM 43.9°F6.6°C 40.0°F4.4°C 86% 4.6 mph NNW7.4 kmh NNW 15.0 mph24.1 kmh 30.09 in1019.0 mb - 0.00 in0.0 mm 0.00 in0.0 mm
09:40 AM 43.8°F6.6°C 39.9°F4.4°C 86% 4.6 mph NW7.4 kmh NW 5.8 mph9.3 kmh 30.09 in1019.0 mb - 0.00 in0.0 mm 0.00 in0.0 mm
09:30 AM 43.8°F6.6°C 39.9°F4.4°C 86% 8.1 mph NW13.0 kmh NW 15.0 mph24.1 kmh 30.09 in1019.0 mb - 0.00 in0.0 mm 0.00 in0.0 mm
09:20 AM 43.5°F6.4°C 39.6°F4.2°C 86% 6.9 mph NW11.1 kmh NW 9.2 mph14.8 kmh 30.08 in1018.6 mb - 0.00 in0.0 mm 0.00 in0.0 mm
09:10 AM 42.9°F6.1°C 39.0°F3.9°C 86% 6.9 mph NW11.1 kmh NW 11.5 mph18.5 kmh 30.08 in1018.6 mb - 0.00 in0.0 mm 0.00 in0.0 mm
09:00 AM 42.7°F5.9°C 38.8°F3.8°C 86% 6.9 mph NW11.1 kmh NW 8.1 mph13.0 kmh 30.08 in1018.6 mb - 0.00 in0.0 mm 0.00 in0.0 mm
08:50 AM 42.5°F5.8°C 38.6°F3.7°C 86% 5.8 mph NW9.3 kmh NW 11.5 mph18.5 kmh 30.08 in1018.6 mb - 0.00 in0.0 mm 0.00 in0.0 mm
08:40 AM 42.4°F5.8°C 38.5°F3.6°C 86% 9.2 mph NW14.8 kmh NW 12.7 mph20.4 kmh 30.07 in1018.3 mb - 0.00 in0.0 mm 0.00 in0.0 mm
08:30 AM 42.3°F5.7°C 38.4°F3.6°C 86% 4.6 mph NW7.4 kmh NW 10.4 mph16.7 kmh 30.07 in1018.3 mb - 0.00 in0.0 mm 0.00 in0.0 mm
08:20 AM 42.3°F5.7°C 38.4°F3.6°C 86% 6.9 mph NW11.1 kmh NW 12.7 mph20.4 kmh 30.07 in1018.3 mb - 0.00 in0.0 mm 0.00 in0.0 mm
08:10 AM 42.2°F5.7°C 38.3°F3.5°C 86% 6.9 mph NW11.1 kmh NW 12.7 mph20.4 kmh 30.07 in1018.3 mb - 0.00 in0.0 mm 0.00 in0.0 mm
08:00 AM 42.1°F5.6°C 40.2°F4.6°C 93% 5.8 mph NW9.3 kmh NW 9.2 mph14.8 kmh 30.07 in1018.3 mb - 0.00 in0.0 mm 0.00 in0.0 mm
07:50 AM 42.1°F5.6°C 40.2°F4.6°C 93% 4.6 mph NW7.4 kmh NW 10.4 mph16.7 kmh 30.07 in1018.3 mb - 0.00 in0.0 mm 0.00 in0.0 mm
07:40 AM 42.1°F5.6°C 40.2°F4.6°C 93% 5.8 mph WNW9.3 kmh WNW 9.2 mph14.8 kmh 30.07 in1018.3 mb - 0.00 in0.0 mm 0.00 in0.0 mm
07:30 AM 42.1°F5.6°C 40.2°F4.6°C 93% 4.6 mph NW7.4 kmh NW 9.2 mph14.8 kmh 30.07 in1018.3 mb - 0.00 in0.0 mm 0.00 in0.0 mm
07:20 AM 42.1°F5.6°C 40.2°F4.6°C 93% 4.6 mph NW7.4 kmh NW 8.1 mph13.0 kmh 30.06 in1017.9 mb - 0.00 in0.0 mm 0.00 in0.0 mm
07:10 AM 42.1°F5.6°C 40.2°F4.6°C 93% 3.5 mph NW5.6 kmh NW 8.1 mph13.0 kmh 30.06 in1017.9 mb - 0.00 in0.0 mm 0.00 in0.0 mm
07:00 AM 42.1°F5.6°C 38.2°F3.4°C 86% 4.6 mph WNW7.4 kmh WNW 6.9 mph11.1 kmh 30.06 in1017.9 mb - 0.00 in0.0 mm 0.00 in0.0 mm
06:50 AM 42.1°F5.6°C 38.2°F3.4°C 86% 4.6 mph NW7.4 kmh NW 9.2 mph14.8 kmh 30.06 in1017.9 mb - 0.00 in0.0 mm 0.00 in0.0 mm
06:40 AM 42.1°F5.6°C 38.2°F3.4°C 86% 6.9 mph NW11.1 kmh NW 11.5 mph18.5 kmh 30.07 in1018.3 mb - 0.00 in0.0 mm 0.00 in0.0 mm
06:30 AM 42.1°F5.6°C 38.2°F3.4°C 86% 4.6 mph NW7.4 kmh NW 11.5 mph18.5 kmh 30.06 in1017.9 mb - 0.00 in0.0 mm 0.00 in0.0 mm
06:20 AM 42.1°F5.6°C 38.2°F3.4°C 86% 5.8 mph NW9.3 kmh NW 11.5 mph18.5 kmh 30.06 in1017.9 mb - 0.00 in0.0 mm 0.00 in0.0 mm
06:10 AM 42.0°F5.6°C 38.2°F3.4°C 86% 3.5 mph NW5.6 kmh NW 11.5 mph18.5 kmh 30.06 in1017.9 mb - 0.00 in0.0 mm 0.00 in0.0 mm
06:00 AM 41.9°F5.5°C 38.1°F3.4°C 86% 2.3 mph NW3.7 kmh NW 9.2 mph14.8 kmh 30.06 in1017.9 mb - 0.00 in0.0 mm 0.00 in0.0 mm
05:50 AM 41.9°F5.5°C 38.0°F3.3°C 86% 4.6 mph NW7.4 kmh NW 9.2 mph14.8 kmh 30.06 in1017.9 mb - 0.00 in0.0 mm 0.00 in0.0 mm
05:40 AM 41.8°F5.4°C 37.9°F3.3°C 86% 4.6 mph NW7.4 kmh NW 3.5 mph5.6 kmh 30.06 in1017.9 mb - 0.00 in0.0 mm 0.00 in0.0 mm
05:30 AM 41.9°F5.5°C 38.0°F3.3°C 86% 5.8 mph NW9.3 kmh NW 10.4 mph16.7 kmh 30.06 in1017.9 mb - 0.00 in0.0 mm 0.00 in0.0 mm
05:20 AM 41.9°F5.5°C 38.0°F3.3°C 86% 3.5 mph NW5.6 kmh NW 4.6 mph7.4 kmh 30.05 in1017.6 mb - 0.00 in0.0 mm 0.00 in0.0 mm
05:10 AM 42.1°F5.6°C 38.2°F3.4°C 86% 6.9 mph NW11.1 kmh NW 11.5 mph18.5 kmh 30.05 in1017.6 mb - 0.00 in0.0 mm 0.00 in0.0 mm
05:00 AM 42.2°F5.7°C 38.3°F3.5°C 86% 4.6 mph NW7.4 kmh NW 11.5 mph18.5 kmh 30.06 in1017.9 mb - 0.00 in0.0 mm 0.00 in0.0 mm
04:50 AM 42.2°F5.7°C 38.3°F3.5°C 86% 2.3 mph NW3.7 kmh NW 11.5 mph18.5 kmh 30.05 in1017.6 mb - 0.00 in0.0 mm 0.00 in0.0 mm
04:40 AM 42.2°F5.7°C 38.3°F3.5°C 86% 1.2 mph NW1.9 kmh NW -- 30.05 in1017.6 mb - 0.00 in0.0 mm 0.00 in0.0 mm
04:30 AM 42.1°F5.6°C 38.2°F3.4°C 86% 4.6 mph NW7.4 kmh NW 9.2 mph14.8 kmh 30.05 in1017.6 mb - 0.00 in0.0 mm 0.00 in0.0 mm
04:20 AM 42.0°F5.6°C 38.1°F3.4°C 86% 5.8 mph NW9.3 kmh NW 10.4 mph16.7 kmh 30.05 in1017.6 mb - 0.00 in0.0 mm 0.00 in0.0 mm
04:10 AM 42.0°F5.6°C 38.1°F3.4°C 86% 1.2 mph NW1.9 kmh NW 3.5 mph5.6 kmh 30.04 in1017.3 mb - 0.00 in0.0 mm 0.00 in0.0 mm
04:00 AM 41.9°F5.5°C 38.0°F3.3°C 86% 3.5 mph NW5.6 kmh NW 5.8 mph9.3 kmh 30.04 in1017.3 mb - 0.00 in0.0 mm 0.00 in0.0 mm
03:50 AM 41.8°F5.4°C 37.9°F3.3°C 86% 4.6 mph WNW7.4 kmh WNW 6.9 mph11.1 kmh 30.04 in1017.3 mb - 0.00 in0.0 mm 0.00 in0.0 mm
03:40 AM 41.7°F5.4°C 37.8°F3.2°C 86% 2.3 mph NW3.7 kmh NW 8.1 mph13.0 kmh 30.04 in1017.3 mb - 0.00 in0.0 mm 0.00 in0.0 mm
03:30 AM 41.6°F5.3°C 37.7°F3.2°C 86% 5.8 mph WNW9.3 kmh WNW 8.1 mph13.0 kmh 30.04 in1017.3 mb - 0.00 in0.0 mm 0.00 in0.0 mm
03:20 AM 41.6°F5.3°C 37.7°F3.2°C 86% 2.3 mph NW3.7 kmh NW 3.5 mph5.6 kmh 30.04 in1017.3 mb - 0.00 in0.0 mm 0.00 in0.0 mm
03:10 AM 41.5°F5.3°C 37.6°F3.1°C 86% 4.6 mph WNW7.4 kmh WNW 8.1 mph13.0 kmh 30.04 in1017.3 mb - 0.00 in0.0 mm 0.00 in0.0 mm
03:00 AM 41.5°F5.3°C 37.6°F3.1°C 86% 2.3 mph NW3.7 kmh NW 8.1 mph13.0 kmh 30.04 in1017.3 mb - 0.00 in0.0 mm 0.00 in0.0 mm
02:50 AM 41.6°F5.3°C 37.7°F3.2°C 86% 4.6 mph NW7.4 kmh NW 9.2 mph14.8 kmh 30.04 in1017.3 mb - 0.00 in0.0 mm 0.00 in0.0 mm
02:40 AM 41.6°F5.3°C 37.7°F3.2°C 86% 3.5 mph NW5.6 kmh NW 12.7 mph20.4 kmh 30.04 in1017.3 mb - 0.00 in0.0 mm 0.00 in0.0 mm
02:30 AM 41.6°F5.3°C 37.7°F3.2°C 86% 4.6 mph NW7.4 kmh NW 10.4 mph16.7 kmh 30.04 in1017.3 mb - 0.00 in0.0 mm 0.00 in0.0 mm
02:20 AM 41.7°F5.4°C 37.8°F3.2°C 86% 4.6 mph NW7.4 kmh NW 6.9 mph11.1 kmh 30.04 in1017.3 mb - 0.00 in0.0 mm 0.00 in0.0 mm
02:10 AM 41.7°F5.4°C 37.8°F3.2°C 86% 5.8 mph NW9.3 kmh NW 11.5 mph18.5 kmh 30.04 in1017.3 mb - 0.00 in0.0 mm 0.00 in0.0 mm
02:00 AM 41.6°F5.3°C 34.3°F1.3°C 75% 6.9 mph NW11.1 kmh NW 10.4 mph16.7 kmh 30.03 in1016.9 mb - 0.00 in0.0 mm 0.00 in0.0 mm
01:50 AM 41.6°F5.3°C 34.3°F1.3°C 75% 5.8 mph NW9.3 kmh NW 8.1 mph13.0 kmh 30.03 in1016.9 mb - 0.00 in0.0 mm 0.00 in0.0 mm
01:40 AM 41.5°F5.3°C 34.2°F1.2°C 75% 4.6 mph NW7.4 kmh NW 12.7 mph20.4 kmh 30.03 in1016.9 mb - 0.00 in0.0 mm 0.00 in0.0 mm
01:30 AM 41.6°F5.3°C 34.3°F1.3°C 75% 6.9 mph NW11.1 kmh NW 8.1 mph13.0 kmh 30.02 in1016.6 mb - 0.00 in0.0 mm 0.00 in0.0 mm
01:20 AM 41.8°F5.4°C 34.5°F1.4°C 75% 1.2 mph NW1.9 kmh NW 8.1 mph13.0 kmh 30.02 in1016.6 mb - 0.00 in0.0 mm 0.00 in0.0 mm
01:10 AM 41.9°F5.5°C 34.6°F1.4°C 75% 5.8 mph NW9.3 kmh NW 11.5 mph18.5 kmh 30.02 in1016.6 mb - 0.00 in0.0 mm 0.00 in0.0 mm
01:00 AM 42.0°F5.6°C 38.1°F3.4°C 86% 6.9 mph NW11.1 kmh NW 10.4 mph16.7 kmh 30.02 in1016.6 mb - 0.00 in0.0 mm 0.00 in0.0 mm
12:50 AM 42.0°F5.6°C 38.1°F3.4°C 86% 3.5 mph NW5.6 kmh NW 5.8 mph9.3 kmh 30.02 in1016.6 mb - 0.00 in0.0 mm 0.00 in0.0 mm
12:40 AM 42.2°F5.7°C 38.3°F3.5°C 86% 4.6 mph NW7.4 kmh NW 4.6 mph7.4 kmh 30.01 in1016.3 mb - 0.00 in0.0 mm 0.00 in0.0 mm
12:30 AM 42.4°F5.8°C 38.5°F3.6°C 86% 3.5 mph NW5.6 kmh NW 9.2 mph14.8 kmh 30.01 in1016.3 mb - 0.00 in0.0 mm 0.00 in0.0 mm
12:20 AM 42.7°F5.9°C 38.8°F3.8°C 86% 2.3 mph NW3.7 kmh NW 3.5 mph5.6 kmh 30.01 in1016.3 mb - 0.00 in0.0 mm 0.00 in0.0 mm
12:10 AM 42.8°F6.0°C 38.9°F3.8°C 86% 2.3 mph NW3.7 kmh NW 5.8 mph9.3 kmh 30.01 in1016.3 mb - 0.00 in0.0 mm 0.00 in0.0 mm
12:00 AM 43.1°F6.2°C 39.2°F4.0°C 86% 9.2 mph NNW14.8 kmh NNW 13.8 mph22.2 kmh 30.00 in1015.9 mb - 0.00 in0.0 mm 0.00 in0.0 mm